createdAt,value
2022-12-18T00:02:18.630Z,64.00
2022-12-18T00:04:50.232Z,63.40
2022-12-18T00:07:21.828Z,63.10
2022-12-18T00:09:53.435Z,63.00
2022-12-18T00:12:25.055Z,63.10
2022-12-18T00:14:58.041Z,63.40
2022-12-18T00:17:29.644Z,63.80
2022-12-18T00:20:01.229Z,64.30
2022-12-18T00:22:32.860Z,64.70
2022-12-18T00:25:04.786Z,65.20
2022-12-18T00:27:36.410Z,65.70
2022-12-18T00:30:10.264Z,66.20
2022-12-18T00:32:41.932Z,66.70
2022-12-18T00:35:13.518Z,67.10
2022-12-18T00:37:45.133Z,67.50
2022-12-18T00:40:16.780Z,67.80
2022-12-18T00:42:57.414Z,68.10
2022-12-18T00:45:32.520Z,68.30
2022-12-18T00:48:04.594Z,68.50
2022-12-18T00:50:36.269Z,68.70
2022-12-18T00:53:08.268Z,68.70
2022-12-18T00:55:40.292Z,69.10
2022-12-18T00:58:12.328Z,69.30
2022-12-18T01:00:45.388Z,69.40
2022-12-18T01:03:17.095Z,69.50
2022-12-18T01:05:48.725Z,69.70
2022-12-18T01:08:20.411Z,69.80
2022-12-18T01:10:52.001Z,70.00
2022-12-18T01:13:23.606Z,70.20
2022-12-18T01:15:56.590Z,70.40
2022-12-18T01:18:28.183Z,70.70
2022-12-18T01:20:59.916Z,70.80
2022-12-18T01:23:31.585Z,71.00
2022-12-18T01:26:06.887Z,71.40
2022-12-18T01:28:38.773Z,71.70
2022-12-18T01:31:17.998Z,71.90
2022-12-18T01:33:50.225Z,71.90
2022-12-18T01:36:23.310Z,71.80
2022-12-18T01:38:55.293Z,71.80
2022-12-18T01:41:48.189Z,71.90
2022-12-18T01:44:38.269Z,72.00
2022-12-18T01:47:14.406Z,72.00
2022-12-18T01:49:45.994Z,72.40
2022-12-18T01:52:18.128Z,72.70
2022-12-18T01:54:50.808Z,72.70
2022-12-18T01:57:22.921Z,72.80
2022-12-18T01:59:57.738Z,72.90
2022-12-18T02:02:31.358Z,72.90
2022-12-18T02:05:03.919Z,72.90
2022-12-18T02:07:42.574Z,73.00
2022-12-18T02:10:16.729Z,72.90
2022-12-18T02:12:52.072Z,72.90
2022-12-18T02:15:27.914Z,72.90
2022-12-18T02:18:03.814Z,73.00
2022-12-18T02:20:37.309Z,73.10
2022-12-18T02:23:13.430Z,73.20
2022-12-18T02:25:58.114Z,73.20
2022-12-18T02:28:32.132Z,73.20
2022-12-18T02:31:05.518Z,73.20
2022-12-18T02:33:38.531Z,73.30
2022-12-18T02:36:11.832Z,73.40
2022-12-18T02:38:43.917Z,73.50
2022-12-18T02:41:17.569Z,73.50
2022-12-18T02:43:54.238Z,73.50
2022-12-18T02:46:28.426Z,73.60
2022-12-18T02:49:04.499Z,73.70
2022-12-18T02:51:39.861Z,73.70
2022-12-18T02:54:14.907Z,73.70
2022-12-18T02:56:51.440Z,73.70
2022-12-18T02:59:27.095Z,73.60
2022-12-18T03:02:02.729Z,73.60
2022-12-18T03:04:39.506Z,73.60
2022-12-18T03:07:16.392Z,73.70
2022-12-18T03:09:49.976Z,73.60
2022-12-18T03:12:25.865Z,73.70
2022-12-18T03:14:58.941Z,73.80
2022-12-18T03:17:31.970Z,73.90
2022-12-18T03:20:06.083Z,74.00
2022-12-18T03:22:39.222Z,74.20
2022-12-18T03:25:11.930Z,74.10
2022-12-18T03:27:48.244Z,74.30
2022-12-18T03:30:19.981Z,74.30
2022-12-18T03:32:57.638Z,74.40
2022-12-18T03:35:34.288Z,74.30
2022-12-18T03:38:06.040Z,74.20
2022-12-18T03:40:42.050Z,74.20
2022-12-18T03:43:18.771Z,74.20
2022-12-18T03:45:54.128Z,74.10
2022-12-18T03:48:29.244Z,74.60
2022-12-18T03:51:02.890Z,74.10
2022-12-18T03:53:38.627Z,74.10
2022-12-18T03:56:10.774Z,74.20
2022-12-18T03:58:44.525Z,74.20
2022-12-18T04:01:17.531Z,74.10
2022-12-18T04:03:50.267Z,74.10
2022-12-18T04:06:22.272Z,74.00
2022-12-18T04:08:54.102Z,73.90
2022-12-18T04:11:25.779Z,74.10
2022-12-18T04:13:59.146Z,74.10
2022-12-18T04:16:30.776Z,74.20
2022-12-18T04:19:02.441Z,74.20
2022-12-18T04:21:34.047Z,74.20
2022-12-18T04:24:05.907Z,74.20
2022-12-18T04:26:37.572Z,74.20
2022-12-18T04:29:10.767Z,74.20
2022-12-18T04:31:42.392Z,74.20
2022-12-18T04:34:14.114Z,74.20
2022-12-18T04:36:45.712Z,74.20
2022-12-18T04:39:17.375Z,74.20
2022-12-18T04:41:49.009Z,74.10
2022-12-18T04:44:21.984Z,74.20
2022-12-18T04:46:53.624Z,74.20
2022-12-18T04:49:26.110Z,74.10
2022-12-18T04:51:58.278Z,74.00
2022-12-18T04:54:29.863Z,74.00
2022-12-18T04:57:01.538Z,74.00
2022-12-18T04:59:34.483Z,74.00
2022-12-18T05:02:06.170Z,74.60
2022-12-18T05:04:37.869Z,74.20
2022-12-18T05:07:09.486Z,74.10
2022-12-18T05:09:41.074Z,74.20
2022-12-18T05:12:13.404Z,74.70
2022-12-18T05:14:46.345Z,74.20
2022-12-18T05:17:17.958Z,74.30
2022-12-18T05:19:49.563Z,74.20
2022-12-18T05:22:21.168Z,74.20
2022-12-18T05:24:52.985Z,74.30
2022-12-18T05:27:24.594Z,74.30
2022-12-18T05:29:57.537Z,74.40
2022-12-18T05:32:29.143Z,74.40
2022-12-18T05:35:00.846Z,74.40
2022-12-18T05:37:32.554Z,74.30
2022-12-18T05:40:04.589Z,74.40
2022-12-18T05:42:36.173Z,74.50
2022-12-18T05:45:09.701Z,74.50
2022-12-18T05:47:41.307Z,74.60
2022-12-18T05:50:12.900Z,74.60
2022-12-18T05:52:44.562Z,74.60
2022-12-18T05:55:16.300Z,74.60
2022-12-18T05:57:47.901Z,74.70
2022-12-18T06:00:20.894Z,74.60
2022-12-18T06:02:52.596Z,74.60
2022-12-18T06:05:24.447Z,74.60
2022-12-18T06:07:56.024Z,74.40
2022-12-18T06:10:27.778Z,74.50
2022-12-18T06:12:59.507Z,74.60
2022-12-18T06:15:32.463Z,74.70
2022-12-18T06:18:04.278Z,74.70
2022-12-18T06:20:37.863Z,74.70
2022-12-18T06:23:10.336Z,74.60
2022-12-18T06:25:41.924Z,74.60
2022-12-18T06:28:13.543Z,74.60
2022-12-18T06:30:46.614Z,74.60
2022-12-18T06:33:18.235Z,74.60
2022-12-18T06:35:49.907Z,74.60
2022-12-18T06:38:21.519Z,74.50
2022-12-18T06:40:53.158Z,74.50
2022-12-18T06:43:24.829Z,74.50
2022-12-18T06:46:00.551Z,74.40
2022-12-18T06:48:32.572Z,74.50
2022-12-18T06:51:04.738Z,74.60
2022-12-18T06:53:36.578Z,74.70
2022-12-18T06:56:10.760Z,74.80
2022-12-18T06:58:42.914Z,74.80
2022-12-18T07:01:16.158Z,74.90
2022-12-18T07:03:48.144Z,75.10
2022-12-18T07:06:20.482Z,75.30
2022-12-18T07:08:52.443Z,75.50
2022-12-18T07:11:24.822Z,75.70
2022-12-18T07:13:56.554Z,75.80
2022-12-18T07:16:29.742Z,75.90
2022-12-18T07:19:01.414Z,76.10
2022-12-18T07:24:05.617Z,75.80
2022-12-18T07:26:37.292Z,76.40
2022-12-18T07:29:09.033Z,76.40
2022-12-18T07:31:42.049Z,76.40
2022-12-18T07:34:14.310Z,76.50
2022-12-18T07:36:45.922Z,76.50
2022-12-18T07:39:17.527Z,76.40
2022-12-18T07:42:09.111Z,76.50
2022-12-18T07:44:40.879Z,76.50
2022-12-18T07:47:13.829Z,76.40
2022-12-18T07:49:45.416Z,76.40
2022-12-18T07:52:19.298Z,76.50
2022-12-18T07:54:54.421Z,76.30
2022-12-18T08:00:17.849Z,76.70
2022-12-18T08:02:50.858Z,76.70
2022-12-18T08:05:22.543Z,76.80
2022-12-18T08:07:54.415Z,77.00
2022-12-18T08:10:26.038Z,77.10
2022-12-18T08:13:01.546Z,77.10
2022-12-18T08:15:36.397Z,77.20
2022-12-18T08:18:14.045Z,77.30
2022-12-18T08:20:46.066Z,77.40
2022-12-18T08:23:17.698Z,77.60
2022-12-18T08:25:49.448Z,77.60
2022-12-18T08:28:21.430Z,77.80
2022-12-18T08:30:53.318Z,77.80
2022-12-18T08:33:27.122Z,77.90
2022-12-18T08:35:59.301Z,78.00
2022-12-18T08:38:31.021Z,78.00
2022-12-18T08:41:03.682Z,78.10
2022-12-18T08:43:53.922Z,78.20
2022-12-18T08:46:26.383Z,78.20
2022-12-18T08:48:59.457Z,78.30
2022-12-18T08:51:31.100Z,78.40
2022-12-18T08:54:02.982Z,78.40
2022-12-18T08:56:36.123Z,78.90
2022-12-18T08:59:07.733Z,78.50
2022-12-18T09:01:39.420Z,78.60
2022-12-18T09:04:12.673Z,78.90
2022-12-18T09:06:44.410Z,79.10
2022-12-18T09:09:16.003Z,79.30
2022-12-18T09:11:47.623Z,79.50
2022-12-18T09:14:19.216Z,79.70
2022-12-18T09:16:50.912Z,79.70
2022-12-18T09:19:23.885Z,79.90
2022-12-18T09:21:55.496Z,80.00
2022-12-18T09:24:27.106Z,80.10
2022-12-18T09:26:58.822Z,80.30
2022-12-18T09:29:30.669Z,80.50
2022-12-18T09:32:02.290Z,80.70
2022-12-18T09:34:35.249Z,80.90
2022-12-18T09:37:06.852Z,81.10
2022-12-18T09:39:39.043Z,81.20
2022-12-18T09:42:14.073Z,81.40
2022-12-18T09:44:47.459Z,81.50
2022-12-18T09:47:20.940Z,81.60
2022-12-18T09:49:56.061Z,81.80
2022-12-18T09:52:29.656Z,81.90
2022-12-18T09:55:02.891Z,82.10
2022-12-18T09:57:36.562Z,82.20
2022-12-18T10:00:18.370Z,82.40
2022-12-18T10:02:51.787Z,82.50
2022-12-18T10:05:32.685Z,82.70
2022-12-18T10:08:06.806Z,82.80
2022-12-18T10:10:40.667Z,82.90
2022-12-18T10:13:16.554Z,83.00
2022-12-18T10:15:54.425Z,83.20
2022-12-18T10:18:33.279Z,83.20
2022-12-18T10:21:10.924Z,83.40
2022-12-18T10:23:48.525Z,83.50
2022-12-18T10:26:20.298Z,83.60
2022-12-18T10:28:54.128Z,83.80
2022-12-18T10:31:26.458Z,83.90
2022-12-18T10:33:58.134Z,84.00
2022-12-18T10:36:31.192Z,84.10
2022-12-18T10:39:15.098Z,84.30
2022-12-18T10:41:47.194Z,84.40
2022-12-18T10:44:19.776Z,84.50
2022-12-18T10:46:52.147Z,84.70
2022-12-18T10:49:24.708Z,84.90
2022-12-18T10:52:07.427Z,85.10
2022-12-18T10:54:39.386Z,85.30
2022-12-18T10:57:18.154Z,85.50
2022-12-18T10:59:53.730Z,85.60
2022-12-18T11:04:57.517Z,85.50
2022-12-18T11:07:47.488Z,86.10
2022-12-18T11:10:19.734Z,86.20
2022-12-18T11:12:51.346Z,91.50
2022-12-18T11:15:27.217Z,86.30
2022-12-18T11:17:59.176Z,86.50
2022-12-18T11:20:32.719Z,86.40
2022-12-18T11:23:06.799Z,86.90
2022-12-18T11:25:39.210Z,87.10
2022-12-18T11:28:26.955Z,87.50
2022-12-18T11:31:13.467Z,87.80
2022-12-18T11:34:11.849Z,88.10
2022-12-18T11:36:40.638Z,88.40
2022-12-18T11:39:18.060Z,89.10
2022-12-18T11:42:12.212Z,89.40
2022-12-18T11:44:47.630Z,89.50
2022-12-18T11:47:26.655Z,89.60
2022-12-18T11:50:01.320Z,89.80
2022-12-18T11:52:36.884Z,90.10
2022-12-18T11:55:13.222Z,90.10
2022-12-18T11:57:47.989Z,90.30
2022-12-18T12:00:20.582Z,90.30
2022-12-18T12:03:22.216Z,90.30
2022-12-18T12:06:02.621Z,90.30
2022-12-18T12:08:41.538Z,90.20
2022-12-18T12:11:22.503Z,90.20
2022-12-18T12:14:06.757Z,89.70
2022-12-18T12:16:47.537Z,89.20
2022-12-18T12:19:26.357Z,88.70
2022-12-18T12:22:01.179Z,87.90
2022-12-18T12:24:38.196Z,87.00
2022-12-18T12:27:15.352Z,86.30
2022-12-18T12:29:50.096Z,85.40
2022-12-18T12:32:28.773Z,85.00
2022-12-18T12:35:09.913Z,84.30
2022-12-18T12:37:50.532Z,83.80
2022-12-18T12:40:51.414Z,83.40
2022-12-18T12:43:22.226Z,84.80
2022-12-18T12:45:54.876Z,82.30
2022-12-18T12:48:33.794Z,81.70
2022-12-18T12:51:09.463Z,81.50
2022-12-18T12:53:43.258Z,81.40
2022-12-18T12:56:15.968Z,81.60
2022-12-18T12:58:56.436Z,80.80
2022-12-18T13:01:33.461Z,81.10
2022-12-18T13:04:12.001Z,81.60
2022-12-18T13:06:46.703Z,81.40
2022-12-18T13:09:18.864Z,83.70
2022-12-18T13:12:10.293Z,83.70
2022-12-18T13:14:43.248Z,86.50
2022-12-18T13:17:16.144Z,87.20
2022-12-18T13:19:49.791Z,81.50
2022-12-18T13:22:22.787Z,81.40
2022-12-18T13:24:54.394Z,81.40
2022-12-18T13:27:47.048Z,82.20
2022-12-18T13:30:37.674Z,82.80
2022-12-18T13:33:30.837Z,82.30
2022-12-18T13:36:10.492Z,82.50
2022-12-18T13:38:42.726Z,82.30
2022-12-18T13:41:24.930Z,81.40
2022-12-18T13:44:10.799Z,78.70
2022-12-18T13:46:45.182Z,77.90
2022-12-18T13:49:21.737Z,88.40
2022-12-18T13:51:55.555Z,79.40
2022-12-18T13:54:31.304Z,78.20
2022-12-18T13:57:03.336Z,77.80
2022-12-18T13:59:36.043Z,77.70
2022-12-18T14:02:14.085Z,77.60
2022-12-18T14:04:46.493Z,80.20
2022-12-18T14:07:21.706Z,77.70
2022-12-18T14:10:06.475Z,77.60
2022-12-18T14:13:00.910Z,77.50
2022-12-18T14:15:35.730Z,77.50
2022-12-18T14:18:16.847Z,77.50
2022-12-18T14:20:52.589Z,80.90
2022-12-18T14:23:30.688Z,78.00
2022-12-18T14:26:06.083Z,77.60
2022-12-18T14:28:43.837Z,77.50
2022-12-18T14:31:19.099Z,77.50
2022-12-18T14:33:52.086Z,77.50
2022-12-18T14:36:24.973Z,77.60
2022-12-18T14:38:58.482Z,77.50
2022-12-18T14:41:30.287Z,77.50
2022-12-18T14:44:06.359Z,77.50
2022-12-18T14:46:39.232Z,77.50
2022-12-18T14:49:19.765Z,77.60
2022-12-18T14:51:52.802Z,77.60
2022-12-18T14:54:26.124Z,77.60
2022-12-18T14:57:00.839Z,77.60
2022-12-18T14:59:33.501Z,77.60
2022-12-18T15:02:15.492Z,77.60
2022-12-18T15:04:47.559Z,77.60
2022-12-18T15:07:21.568Z,77.70
2022-12-18T15:10:10.363Z,77.80
2022-12-18T15:12:43.681Z,77.30
2022-12-18T15:15:48.381Z,77.70
2022-12-18T15:18:21.996Z,77.70
2022-12-18T15:20:54.391Z,77.60
2022-12-18T15:23:27.260Z,77.60
2022-12-18T15:26:01.421Z,77.70
2022-12-18T15:28:35.923Z,83.20
2022-12-18T15:31:22.038Z,77.50
2022-12-18T15:34:13.234Z,77.80
2022-12-18T15:36:45.552Z,77.80
2022-12-18T15:39:17.160Z,77.80
2022-12-18T15:42:08.721Z,77.80
2022-12-18T15:44:40.389Z,77.80
2022-12-18T15:47:13.018Z,77.80
2022-12-18T15:49:44.602Z,80.60
2022-12-18T15:55:16.886Z,77.40
2022-12-18T15:57:49.866Z,77.80
2022-12-18T16:00:21.735Z,77.80
2022-12-18T16:02:53.627Z,77.90
2022-12-18T16:07:57.582Z,77.50
2022-12-18T16:10:29.279Z,78.10
2022-12-18T16:13:02.240Z,78.20
2022-12-18T16:15:34.171Z,78.20
2022-12-18T16:18:05.906Z,78.30
2022-12-18T16:20:39.306Z,78.40
2022-12-18T16:23:10.991Z,78.40
2022-12-18T16:25:42.662Z,78.40
2022-12-18T16:28:15.632Z,78.40
2022-12-18T16:30:47.260Z,79.00
2022-12-18T16:33:18.882Z,78.60
2022-12-18T16:35:52.374Z,78.70
2022-12-18T16:38:24.041Z,78.70
2022-12-18T16:41:14.231Z,80.30
2022-12-18T16:43:53.069Z,82.30
2022-12-18T16:46:26.481Z,79.10
2022-12-18T16:48:58.462Z,78.60
2022-12-18T16:51:30.062Z,79.10
2022-12-18T16:56:36.890Z,78.90
2022-12-18T16:59:12.203Z,79.40
2022-12-18T17:01:43.907Z,79.60
2022-12-18T17:06:52.003Z,79.20
2022-12-18T17:09:26.353Z,79.70
2022-12-18T17:11:58.038Z,79.80
2022-12-18T17:14:32.069Z,79.70
2022-12-18T17:19:53.247Z,82.20
2022-12-18T17:22:24.855Z,84.60
2022-12-18T17:24:56.486Z,85.50
2022-12-18T17:27:28.261Z,85.80
2022-12-18T17:30:01.181Z,85.60
2022-12-18T17:32:32.822Z,85.20
2022-12-18T17:35:07.363Z,84.50
2022-12-18T17:37:39.236Z,83.80
2022-12-18T17:40:11.139Z,83.00
2022-12-18T17:42:42.766Z,82.30
2022-12-18T17:45:15.839Z,81.70
2022-12-18T17:47:47.448Z,81.10
2022-12-18T17:50:19.057Z,80.40
2022-12-18T17:52:55.055Z,80.00
2022-12-18T17:55:27.013Z,79.50
2022-12-18T17:57:58.645Z,79.00
2022-12-18T18:00:31.708Z,78.40
2022-12-18T18:03:03.593Z,77.90
2022-12-18T18:05:35.356Z,77.50
2022-12-18T18:08:07.378Z,77.00
2022-12-18T18:10:39.532Z,76.60
2022-12-18T18:13:44.961Z,76.30
2022-12-18T18:16:19.780Z,76.10
2022-12-18T18:18:51.463Z,75.80
2022-12-18T18:21:23.102Z,75.60
2022-12-18T18:23:59.040Z,75.40
2022-12-18T18:26:31.616Z,75.10
2022-12-18T18:29:05.213Z,75.00
2022-12-18T18:31:41.404Z,74.70
2022-12-18T18:34:14.448Z,74.60
2022-12-18T18:36:46.259Z,74.40
2022-12-18T18:39:18.162Z,74.10
2022-12-18T18:41:50.043Z,74.00
2022-12-18T18:44:24.857Z,73.70
2022-12-18T18:46:59.521Z,73.50
2022-12-18T18:49:31.824Z,73.40
2022-12-18T18:52:03.476Z,73.30
2022-12-18T18:54:35.154Z,73.30
2022-12-18T18:57:26.317Z,73.20
2022-12-18T18:59:58.389Z,73.00
2022-12-18T19:02:31.548Z,73.30
2022-12-18T19:05:03.379Z,72.70
2022-12-18T19:07:34.991Z,72.60
2022-12-18T19:10:07.659Z,72.50
2022-12-18T19:12:57.615Z,72.40
2022-12-18T19:15:29.433Z,72.30
2022-12-18T19:18:02.654Z,72.20
2022-12-18T19:20:34.432Z,72.10
2022-12-18T19:23:06.178Z,71.90
2022-12-18T19:25:41.599Z,71.80
2022-12-18T19:28:22.105Z,71.70
2022-12-18T19:30:58.669Z,71.60
2022-12-18T19:33:42.820Z,71.60
2022-12-18T19:36:18.291Z,71.50
2022-12-18T19:38:50.902Z,71.40
2022-12-18T19:41:22.992Z,71.30
2022-12-18T19:43:54.923Z,71.20
2022-12-18T19:46:26.676Z,71.30
2022-12-18T19:49:00.270Z,71.20
2022-12-18T19:51:32.713Z,71.20
2022-12-18T19:54:04.740Z,71.10
2022-12-18T19:56:36.474Z,71.00
2022-12-18T19:59:09.501Z,71.00
2022-12-18T20:01:41.461Z,70.90
2022-12-18T20:04:14.517Z,70.70
2022-12-18T20:06:47.111Z,70.70
2022-12-18T20:09:19.289Z,70.70
2022-12-18T20:11:52.027Z,70.70
2022-12-18T20:14:23.929Z,70.70
2022-12-18T20:16:55.634Z,70.40
2022-12-18T20:19:28.663Z,69.50
2022-12-18T20:22:00.755Z,69.00
2022-12-18T20:24:32.335Z,68.90
2022-12-18T20:27:04.025Z,68.80
2022-12-18T20:29:35.635Z,68.90
2022-12-18T20:32:07.340Z,69.00
2022-12-18T20:34:40.526Z,69.30
2022-12-18T20:37:12.404Z,69.50
2022-12-18T20:39:44.693Z,69.70
2022-12-18T20:42:16.987Z,70.00
2022-12-18T20:44:48.615Z,70.30
2022-12-18T20:47:20.316Z,70.70
2022-12-18T20:49:53.328Z,71.00
2022-12-18T20:52:24.985Z,71.20
2022-12-18T20:54:56.683Z,71.50
2022-12-18T20:57:30.146Z,71.70
2022-12-18T21:00:01.746Z,71.90
2022-12-18T21:02:33.597Z,72.00
2022-12-18T21:05:07.369Z,72.40
2022-12-18T21:07:39.017Z,72.60
2022-12-18T21:10:10.600Z,72.90
2022-12-18T21:12:49.736Z,73.00
2022-12-18T21:15:28.521Z,72.60
2022-12-18T21:18:00.599Z,73.30
2022-12-18T21:20:33.622Z,73.50
2022-12-18T21:23:16.001Z,73.60
2022-12-18T21:25:52.226Z,73.80
2022-12-18T21:28:27.431Z,74.00
2022-12-18T21:30:59.221Z,74.10
2022-12-18T21:33:30.854Z,74.10
2022-12-18T21:36:05.122Z,74.30
2022-12-18T21:38:36.842Z,74.50
2022-12-18T21:41:08.991Z,74.60
2022-12-18T21:43:59.346Z,74.80
2022-12-18T21:46:30.958Z,74.90
2022-12-18T21:49:04.287Z,75.00
2022-12-18T21:51:37.520Z,75.20
2022-12-18T21:54:09.101Z,75.30
2022-12-18T21:56:44.506Z,75.20
2022-12-18T21:59:18.789Z,75.40
2022-12-18T22:01:50.930Z,75.70
2022-12-18T22:04:23.284Z,75.90
2022-12-18T22:06:56.677Z,76.00
2022-12-18T22:09:28.434Z,76.10
2022-12-18T22:12:00.144Z,76.30
2022-12-18T22:14:32.174Z,76.40
2022-12-18T22:17:03.979Z,76.40
2022-12-18T22:19:42.608Z,76.50
2022-12-18T22:22:16.111Z,76.50
2022-12-18T22:24:48.326Z,76.60
2022-12-18T22:27:19.963Z,76.70
2022-12-18T22:30:06.576Z,76.70
2022-12-18T22:32:38.215Z,78.10
2022-12-18T22:35:15.620Z,79.70
2022-12-18T22:37:49.140Z,80.90
2022-12-18T22:40:24.637Z,81.60
2022-12-18T22:42:57.374Z,81.60
2022-12-18T22:45:28.990Z,81.30
2022-12-18T22:48:00.674Z,81.00
2022-12-18T22:50:33.691Z,80.50
2022-12-18T22:53:07.809Z,79.90
2022-12-18T22:55:39.783Z,79.30
2022-12-18T22:58:11.388Z,78.90
2022-12-18T23:00:43.029Z,78.30
2022-12-18T23:03:14.702Z,77.70
2022-12-18T23:05:47.706Z,77.20
2022-12-18T23:08:20.657Z,76.70
2022-12-18T23:10:52.377Z,76.30
2022-12-18T23:13:24.023Z,75.90
2022-12-18T23:15:55.740Z,75.60
2022-12-18T23:18:27.399Z,75.00
2022-12-18T23:21:02.999Z,74.50
2022-12-18T23:23:37.494Z,73.90
2022-12-18T23:26:10.431Z,73.70
2022-12-18T23:28:42.159Z,73.30
2022-12-18T23:31:14.869Z,73.10
2022-12-18T23:33:48.502Z,72.50
2022-12-18T23:36:23.377Z,72.40
2022-12-18T23:38:57.018Z,72.30
2022-12-18T23:41:30.221Z,72.20
2022-12-18T23:44:01.891Z,72.00
2022-12-18T23:46:34.406Z,72.10
2022-12-18T23:49:06.607Z,71.90
2022-12-18T23:51:38.294Z,71.80
2022-12-18T23:54:12.383Z,71.60
2022-12-18T23:56:43.966Z,71.60
2022-12-18T23:59:15.591Z,71.50
